createdAt,value
2022-10-27T00:00:39.383Z,41.20
2022-10-27T00:03:06.845Z,61.20
2022-10-27T00:05:34.365Z,68.10
2022-10-27T00:08:01.436Z,58.60
2022-10-27T00:10:28.466Z,53.00
2022-10-27T00:12:58.667Z,37.00
2022-10-27T00:15:26.809Z,39.70
2022-10-27T00:17:53.710Z,29.20
2022-10-27T00:20:20.737Z,34.90
2022-10-27T00:22:50.890Z,37.10
2022-10-27T00:25:19.074Z,31.20
2022-10-27T00:27:46.083Z,34.70
2022-10-27T00:30:13.217Z,35.10
2022-10-27T00:32:40.545Z,22.50
2022-10-27T00:35:07.865Z,41.90
2022-10-27T00:37:34.856Z,25.10
2022-10-27T00:40:01.886Z,30.10
2022-10-27T00:42:29.313Z,20.10
2022-10-27T00:44:56.334Z,25.90
2022-10-27T00:47:28.007Z,25.70
2022-10-27T00:50:01.671Z,27.50
2022-10-27T00:52:33.345Z,26.60
2022-10-27T00:55:12.903Z,20.80
2022-10-27T00:57:40.655Z,16.00
2022-10-27T01:00:09.101Z,12.50
2022-10-27T01:02:36.858Z,12.50
2022-10-27T01:05:11.575Z,12.40
2022-10-27T01:07:39.650Z,13.30
2022-10-27T01:10:06.946Z,13.00
2022-10-27T01:12:34.505Z,13.10
2022-10-27T01:15:01.446Z,12.30
2022-10-27T01:17:31.394Z,12.30
2022-10-27T01:20:24.734Z,11.40
2022-10-27T01:23:03.101Z,12.80
2022-10-27T01:25:52.910Z,15.10
2022-10-27T01:28:31.991Z,17.20
2022-10-27T01:31:14.044Z,15.30
2022-10-27T01:33:52.050Z,27.90
2022-10-27T01:36:25.039Z,15.10
2022-10-27T01:38:59.285Z,20.10
2022-10-27T01:44:17.713Z,21.30
2022-10-27T01:46:44.658Z,19.20
2022-10-27T01:49:12.460Z,21.00
2022-10-27T01:51:40.644Z,19.60
2022-10-27T01:54:07.751Z,15.60
2022-10-27T01:57:07.261Z,16.90
2022-10-27T01:59:58.845Z,17.70
2022-10-27T02:02:48.520Z,17.90
2022-10-27T02:05:32.300Z,19.80
2022-10-27T02:08:11.785Z,21.50
2022-10-27T02:10:46.805Z,20.90
2022-10-27T02:13:14.069Z,19.10
2022-10-27T02:15:44.027Z,21.40
2022-10-27T02:18:33.011Z,22.60
2022-10-27T02:23:28.525Z,51.70
2022-10-27T02:26:13.918Z,43.90
2022-10-27T02:29:06.981Z,36.20
2022-10-27T02:31:36.121Z,22.90
2022-10-27T02:34:03.477Z,24.70
2022-10-27T02:36:31.113Z,27.70
2022-10-27T02:38:58.050Z,25.00
2022-10-27T02:41:25.547Z,39.30
2022-10-27T02:43:55.581Z,28.50
2022-10-27T02:46:22.788Z,25.80
2022-10-27T02:48:49.706Z,24.20
2022-10-27T02:51:16.722Z,17.90
2022-10-27T02:53:44.338Z,18.70
2022-10-27T02:56:12.560Z,16.80
2022-10-27T02:58:40.815Z,19.30
2022-10-27T03:01:07.787Z,18.40
2022-10-27T03:03:34.927Z,20.70
2022-10-27T03:06:02.429Z,23.10
2022-10-27T03:08:29.944Z,20.70
2022-10-27T03:10:59.056Z,16.90
2022-10-27T03:13:26.098Z,14.50
2022-10-27T03:15:54.176Z,16.20
2022-10-27T03:18:21.699Z,18.60
2022-10-27T03:20:49.807Z,16.90
2022-10-27T03:23:17.002Z,20.10
2022-10-27T03:25:47.630Z,16.10
2022-10-27T03:28:16.347Z,17.20
2022-10-27T03:30:48.654Z,20.40
2022-10-27T03:33:15.948Z,30.20
2022-10-27T03:35:44.005Z,24.20
2022-10-27T03:38:13.110Z,26.40
2022-10-27T03:40:40.201Z,25.60
2022-10-27T03:43:07.594Z,15.80
2022-10-27T03:45:35.834Z,22.80
2022-10-27T03:48:07.669Z,21.90
2022-10-27T03:50:34.896Z,20.50
2022-10-27T03:53:03.645Z,38.60
2022-10-27T03:55:32.214Z,38.00
2022-10-27T03:57:59.754Z,33.50
2022-10-27T04:00:28.809Z,18.30
2022-10-27T04:02:57.090Z,15.90
2022-10-27T04:05:24.224Z,14.00
2022-10-27T04:07:52.925Z,20.60
2022-10-27T04:10:19.918Z,34.80
2022-10-27T04:12:59.394Z,26.10
2022-10-27T04:15:27.256Z,30.40
2022-10-27T04:17:55.270Z,20.40
2022-10-27T04:20:23.049Z,27.30
2022-10-27T04:22:50.563Z,28.80
2022-10-27T04:25:18.043Z,35.40
2022-10-27T04:27:45.693Z,36.60
2022-10-27T04:30:12.804Z,32.50
2022-10-27T04:32:41.162Z,39.90
2022-10-27T04:35:08.799Z,39.20
2022-10-27T04:37:35.819Z,36.80
2022-10-27T04:40:02.974Z,32.60
2022-10-27T04:42:30.525Z,39.30
2022-10-27T04:44:57.431Z,29.20
2022-10-27T04:47:24.463Z,31.50
2022-10-27T04:49:51.433Z,24.00
2022-10-27T04:52:18.453Z,22.20
2022-10-27T04:54:45.793Z,15.20
2022-10-27T04:57:13.152Z,54.00
2022-10-27T04:59:40.661Z,54.60
2022-10-27T05:02:07.850Z,41.40
2022-10-27T05:04:35.906Z,35.90
2022-10-27T05:07:03.103Z,40.10
2022-10-27T05:09:30.008Z,34.00
2022-10-27T05:11:57.270Z,26.60
2022-10-27T05:14:24.330Z,18.10
2022-10-27T05:16:51.619Z,20.00
2022-10-27T05:19:18.546Z,17.80
2022-10-27T05:21:45.633Z,14.50
2022-10-27T05:24:12.643Z,10.90
2022-10-27T05:26:39.667Z,7.70
2022-10-27T05:29:06.820Z,8.40
2022-10-27T05:31:33.868Z,9.00
2022-10-27T05:34:01.177Z,11.20
2022-10-27T05:36:28.487Z,7.50
2022-10-27T05:38:56.440Z,18.00
2022-10-27T05:41:23.465Z,20.20
2022-10-27T05:43:52.578Z,9.50
2022-10-27T05:46:19.578Z,23.00
2022-10-27T05:48:46.585Z,24.40
2022-10-27T05:51:15.707Z,39.30
2022-10-27T05:53:44.936Z,43.00
2022-10-27T05:56:11.845Z,50.20
2022-10-27T05:58:39.105Z,40.00
2022-10-27T06:01:06.161Z,32.90
2022-10-27T06:03:33.446Z,37.40
2022-10-27T06:06:03.439Z,31.90
2022-10-27T06:08:30.623Z,24.00
2022-10-27T06:10:57.898Z,29.70
2022-10-27T06:13:25.942Z,24.10
2022-10-27T06:15:53.429Z,19.80
2022-10-27T06:18:23.561Z,13.90
2022-10-27T06:20:50.670Z,20.10
2022-10-27T06:23:17.783Z,26.00
2022-10-27T06:25:44.956Z,26.80
2022-10-27T06:28:11.874Z,22.20
2022-10-27T06:30:39.408Z,26.40
2022-10-27T06:33:08.059Z,16.20
2022-10-27T06:35:35.147Z,11.90
2022-10-27T06:38:02.088Z,14.70
2022-10-27T06:40:29.753Z,13.50
2022-10-27T06:43:12.186Z,22.50
2022-10-27T06:45:39.696Z,21.60
2022-10-27T06:48:08.289Z,17.80
2022-10-27T06:50:55.084Z,30.80
2022-10-27T06:53:22.057Z,49.90
2022-10-27T06:55:49.011Z,46.60
2022-10-27T06:58:15.931Z,44.30
2022-10-27T07:00:43.175Z,43.20
2022-10-27T07:05:38.373Z,54.60
2022-10-27T07:08:05.705Z,45.80
2022-10-27T07:10:32.599Z,53.00
2022-10-27T07:13:00.993Z,49.20
2022-10-27T07:15:36.645Z,32.50
2022-10-27T07:18:06.925Z,28.60
2022-10-27T07:20:35.006Z,22.90
2022-10-27T07:23:02.579Z,25.50
2022-10-27T07:25:30.651Z,27.10
2022-10-27T07:27:58.373Z,24.60
2022-10-27T07:30:30.470Z,52.80
2022-10-27T07:32:57.787Z,28.60
2022-10-27T07:35:24.830Z,15.10
2022-10-27T07:37:52.464Z,13.90
2022-10-27T07:40:21.621Z,12.80
2022-10-27T07:42:54.535Z,12.90
2022-10-27T07:45:22.671Z,15.30
2022-10-27T07:47:51.267Z,18.50
2022-10-27T07:50:19.733Z,14.40
2022-10-27T07:52:48.436Z,21.90
2022-10-27T07:55:15.976Z,13.90
2022-10-27T07:57:43.555Z,11.70
2022-10-27T08:00:12.762Z,16.50
2022-10-27T08:02:40.015Z,15.60
2022-10-27T08:05:07.910Z,18.80
2022-10-27T08:07:35.423Z,14.40
2022-10-27T08:10:05.071Z,26.00
2022-10-27T08:12:32.084Z,9.50
2022-10-27T08:14:59.574Z,12.90
2022-10-27T08:17:28.921Z,20.20
2022-10-27T08:19:56.232Z,10.40
2022-10-27T08:22:23.947Z,9.70
2022-10-27T08:24:51.034Z,9.40
2022-10-27T08:27:17.980Z,10.90
2022-10-27T08:29:45.112Z,12.40
2022-10-27T08:32:12.950Z,15.40
2022-10-27T08:34:39.872Z,14.10
2022-10-27T08:37:06.851Z,11.30
2022-10-27T08:39:35.580Z,13.60
2022-10-27T08:42:45.020Z,10.80
2022-10-27T08:45:18.675Z,8.80
2022-10-27T08:47:45.824Z,8.10
2022-10-27T08:50:21.785Z,14.20
2022-10-27T08:52:57.132Z,44.30
2022-10-27T08:55:29.936Z,14.90
2022-10-27T08:58:23.266Z,14.50
2022-10-27T09:00:53.999Z,12.10
2022-10-27T09:03:31.587Z,29.00
2022-10-27T09:06:09.352Z,18.50
2022-10-27T09:08:49.998Z,10.80
2022-10-27T09:11:45.986Z,12.00
2022-10-27T09:14:45.570Z,14.30
2022-10-27T09:17:25.590Z,16.20
2022-10-27T09:20:05.840Z,17.70
2022-10-27T09:22:34.245Z,59.10
2022-10-27T09:25:03.736Z,23.10
2022-10-27T09:27:30.967Z,79.80
2022-10-27T09:30:03.525Z,20.70
2022-10-27T09:32:33.168Z,17.40
2022-10-27T09:35:02.236Z,19.00
2022-10-27T09:37:31.320Z,28.20
2022-10-27T09:39:58.319Z,18.80
2022-10-27T09:42:27.117Z,9.20
2022-10-27T09:45:01.042Z,9.90
2022-10-27T09:47:38.437Z,18.30
2022-10-27T09:50:08.885Z,16.30
2022-10-27T09:52:39.954Z,13.90
2022-10-27T09:55:07.480Z,12.60
2022-10-27T09:57:35.545Z,11.50
2022-10-27T10:00:08.611Z,7.70
2022-10-27T10:02:45.661Z,12.90
2022-10-27T10:05:25.559Z,7.50
2022-10-27T10:07:55.337Z,9.00
2022-10-27T10:10:28.591Z,8.20
2022-10-27T10:13:10.745Z,7.90
2022-10-27T10:15:45.829Z,7.20
2022-10-27T10:18:23.097Z,6.70
2022-10-27T10:20:56.546Z,5.70
2022-10-27T10:23:24.905Z,5.10
2022-10-27T10:25:53.015Z,5.20
2022-10-27T10:28:43.406Z,8.00
2022-10-27T10:31:13.185Z,4.70
2022-10-27T10:33:45.170Z,5.50
2022-10-27T10:36:35.582Z,6.70
2022-10-27T10:39:02.936Z,6.70
2022-10-27T10:41:31.845Z,7.90
2022-10-27T10:44:14.922Z,8.50
2022-10-27T10:46:53.367Z,5.50
2022-10-27T10:49:30.937Z,28.70
2022-10-27T10:52:02.674Z,6.60
2022-10-27T10:54:35.038Z,8.80
2022-10-27T10:57:02.557Z,24.50
2022-10-27T10:59:33.704Z,7.00
2022-10-27T11:02:04.511Z,16.20
2022-10-27T11:04:40.994Z,10.90
2022-10-27T11:07:31.864Z,10.10
2022-10-27T11:10:12.794Z,7.80
2022-10-27T11:12:56.336Z,7.00
2022-10-27T11:15:35.996Z,7.40
2022-10-27T11:18:24.787Z,6.40
2022-10-27T11:20:55.189Z,6.20
2022-10-27T11:23:28.419Z,6.60
2022-10-27T11:25:58.795Z,6.00
2022-10-27T11:31:06.155Z,6.50
2022-10-27T11:33:52.385Z,27.10
2022-10-27T11:36:21.780Z,33.30
2022-10-27T11:39:08.397Z,8.00
2022-10-27T11:41:44.216Z,8.80
2022-10-27T11:44:43.974Z,7.80
2022-10-27T11:47:11.765Z,4.70
2022-10-27T11:49:43.942Z,25.30
2022-10-27T11:52:25.678Z,7.30
2022-10-27T11:54:53.004Z,8.20
2022-10-27T11:57:41.686Z,8.20
2022-10-27T12:00:20.773Z,6.40
2022-10-27T12:03:06.180Z,10.60
2022-10-27T12:05:58.128Z,8.10
2022-10-27T12:08:40.861Z,5.40
2022-10-27T12:11:23.407Z,5.80
2022-10-27T12:14:09.547Z,9.00
2022-10-27T12:16:55.893Z,15.80
2022-10-27T12:19:28.170Z,9.80
2022-10-27T12:22:01.543Z,6.40
2022-10-27T12:24:40.146Z,7.00
2022-10-27T12:27:10.191Z,79.70
2022-10-27T12:29:39.721Z,12.50
2022-10-27T12:32:11.406Z,4.70
2022-10-27T12:34:41.404Z,5.60
2022-10-27T12:37:22.554Z,5.60
2022-10-27T12:39:53.573Z,5.80
2022-10-27T12:42:42.586Z,6.10
2022-10-27T12:45:34.176Z,6.20
2022-10-27T12:48:10.188Z,5.70
2022-10-27T12:50:58.879Z,7.50
2022-10-27T12:53:40.371Z,8.30
2022-10-27T12:56:23.378Z,5.10
2022-10-27T12:58:52.588Z,5.20
2022-10-27T13:01:44.855Z,7.70
2022-10-27T13:04:44.086Z,7.30
2022-10-27T13:07:32.356Z,5.50
2022-10-27T13:10:30.203Z,5.20
2022-10-27T13:13:03.213Z,6.90
2022-10-27T13:15:38.621Z,6.80
2022-10-27T13:18:15.636Z,6.30
2022-10-27T13:21:16.141Z,7.20
2022-10-27T13:24:03.450Z,8.30
2022-10-27T13:26:34.848Z,5.90
2022-10-27T13:29:14.224Z,5.70
2022-10-27T13:31:41.296Z,7.60
2022-10-27T13:34:08.367Z,5.20
2022-10-27T13:36:37.420Z,6.60
2022-10-27T13:39:13.496Z,7.70
2022-10-27T13:41:50.040Z,8.90
2022-10-27T13:44:27.149Z,6.20
2022-10-27T13:47:10.787Z,8.80
2022-10-27T13:49:40.949Z,8.30
2022-10-27T13:52:16.933Z,9.90
2022-10-27T13:55:14.392Z,9.10
2022-10-27T13:58:07.043Z,5.70
2022-10-27T14:00:47.057Z,6.40
2022-10-27T14:06:14.470Z,12.00
2022-10-27T14:11:30.248Z,7.00
2022-10-27T14:14:01.778Z,8.50
2022-10-27T14:16:38.134Z,9.40
2022-10-27T14:19:06.794Z,6.60
2022-10-27T14:21:36.788Z,7.30
2022-10-27T14:24:06.064Z,10.70
2022-10-27T14:26:37.185Z,10.00
2022-10-27T14:29:04.941Z,8.60
2022-10-27T14:31:33.556Z,8.70
2022-10-27T14:34:26.071Z,10.30
2022-10-27T14:36:57.280Z,8.80
2022-10-27T14:39:31.456Z,8.90
2022-10-27T14:42:02.804Z,8.70
2022-10-27T14:44:32.172Z,10.10
2022-10-27T14:47:01.174Z,9.80
2022-10-27T14:49:32.356Z,11.30
2022-10-27T14:52:03.880Z,10.40
2022-10-27T14:54:31.079Z,11.70
2022-10-27T14:57:24.399Z,10.00
2022-10-27T14:59:51.727Z,12.40
2022-10-27T15:02:18.980Z,12.30
2022-10-27T15:04:45.979Z,12.30
2022-10-27T15:07:15.406Z,10.90
2022-10-27T15:09:50.102Z,10.10
2022-10-27T15:12:25.097Z,14.60
2022-10-27T15:14:54.566Z,20.60
2022-10-27T15:17:28.109Z,23.50
2022-10-27T15:19:57.331Z,21.30
2022-10-27T15:22:24.358Z,28.30
2022-10-27T15:24:51.350Z,24.60
2022-10-27T15:27:19.272Z,31.00
2022-10-27T15:29:48.484Z,26.50
2022-10-27T15:32:23.327Z,27.70
2022-10-27T15:34:50.466Z,42.00
2022-10-27T15:37:23.926Z,50.10
2022-10-27T15:39:51.924Z,42.40
2022-10-27T15:42:20.356Z,41.10
2022-10-27T15:44:48.103Z,45.40
2022-10-27T15:47:42.049Z,38.30
2022-10-27T15:50:25.752Z,30.90
2022-10-27T15:53:05.332Z,47.20
2022-10-27T15:55:32.582Z,36.40
2022-10-27T15:57:59.705Z,30.30
2022-10-27T16:00:27.595Z,51.90
2022-10-27T16:02:58.412Z,55.10
2022-10-27T16:05:32.221Z,63.60
2022-10-27T16:08:00.101Z,56.40
2022-10-27T16:10:27.438Z,60.60
2022-10-27T16:12:54.792Z,57.10
2022-10-27T16:15:23.772Z,57.30
2022-10-27T16:17:56.535Z,54.10
2022-10-27T16:22:52.079Z,69.80
2022-10-27T16:25:21.223Z,59.40
2022-10-27T16:27:48.138Z,63.10
2022-10-27T16:30:17.381Z,58.20
2022-10-27T16:32:44.457Z,53.60
2022-10-27T16:35:15.264Z,62.50
2022-10-27T16:37:44.017Z,55.50
2022-10-27T16:40:17.490Z,61.80
2022-10-27T16:42:50.594Z,49.10
2022-10-27T16:45:20.408Z,56.80
2022-10-27T16:47:49.427Z,61.00
2022-10-27T16:50:16.685Z,56.00
2022-10-27T16:52:43.851Z,58.40
2022-10-27T16:55:13.775Z,54.90
2022-10-27T16:57:47.209Z,73.10
2022-10-27T17:00:16.931Z,63.30
2022-10-27T17:02:44.026Z,62.90
2022-10-27T17:05:11.175Z,62.70
2022-10-27T17:07:39.271Z,66.60
2022-10-27T17:10:07.140Z,64.20
2022-10-27T17:12:35.376Z,72.00
2022-10-27T17:15:02.380Z,71.10
2022-10-27T17:17:29.441Z,75.00
2022-10-27T17:19:56.550Z,72.80
2022-10-27T17:22:23.530Z,80.60
2022-10-27T17:24:50.899Z,84.80
2022-10-27T17:27:17.825Z,90.30
2022-10-27T17:29:47.102Z,78.60
2022-10-27T17:32:14.483Z,83.80
2022-10-27T17:34:43.511Z,102.10
2022-10-27T17:37:11.981Z,104.40
2022-10-27T17:39:39.031Z,105.40
2022-10-27T17:42:07.348Z,107.00
2022-10-27T17:44:34.513Z,100.60
2022-10-27T17:47:01.724Z,99.40
2022-10-27T17:49:28.921Z,76.60
2022-10-27T17:51:55.968Z,97.20
2022-10-27T17:54:24.755Z,107.10
2022-10-27T17:56:52.013Z,103.90
2022-10-27T17:59:20.254Z,109.50
2022-10-27T18:01:49.965Z,119.70
2022-10-27T18:04:17.558Z,113.30
2022-10-27T18:06:44.677Z,128.00
2022-10-27T18:09:13.728Z,110.70
2022-10-27T18:11:41.933Z,116.20
2022-10-27T18:14:13.329Z,109.50
2022-10-27T18:16:41.021Z,131.20
2022-10-27T18:19:11.369Z,126.70
2022-10-27T18:21:44.401Z,132.80
2022-10-27T18:24:12.496Z,127.40
2022-10-27T18:26:42.053Z,136.90
2022-10-27T18:29:10.417Z,114.60
2022-10-27T18:31:38.809Z,113.90
2022-10-27T18:34:10.181Z,117.20
2022-10-27T18:36:37.827Z,120.50
2022-10-27T18:39:05.589Z,124.90
2022-10-27T18:41:34.195Z,128.60
2022-10-27T18:44:01.289Z,123.00
2022-10-27T18:46:28.885Z,115.40
2022-10-27T18:48:59.067Z,93.00
2022-10-27T18:51:29.180Z,101.20
2022-10-27T18:53:57.551Z,92.00
2022-10-27T18:56:54.311Z,101.60
2022-10-27T18:59:21.289Z,107.70
2022-10-27T19:01:48.480Z,98.50
2022-10-27T19:04:16.171Z,101.40
2022-10-27T19:06:43.855Z,56.20
2022-10-27T19:09:11.342Z,62.80
2022-10-27T19:11:38.412Z,71.60
2022-10-27T19:14:06.540Z,70.10
2022-10-27T19:16:34.773Z,54.20
2022-10-27T19:19:02.819Z,68.60
2022-10-27T19:21:30.094Z,66.00
2022-10-27T19:24:02.215Z,62.80
2022-10-27T19:26:31.232Z,61.70
2022-10-27T19:28:58.454Z,50.80
2022-10-27T19:31:27.838Z,49.60
2022-10-27T19:33:55.358Z,50.80
2022-10-27T19:36:33.258Z,48.10
2022-10-27T19:39:01.708Z,46.20
2022-10-27T19:41:30.741Z,49.90
2022-10-27T19:43:57.873Z,46.20
2022-10-27T19:46:25.819Z,36.20
2022-10-27T19:48:57.583Z,40.80
2022-10-27T19:51:26.604Z,43.20
2022-10-27T19:53:54.289Z,46.40
2022-10-27T19:56:21.824Z,45.20
2022-10-27T19:58:53.256Z,50.60
2022-10-27T20:01:40.394Z,47.00
2022-10-27T20:04:11.086Z,36.20
2022-10-27T20:06:48.167Z,44.30
2022-10-27T20:09:16.361Z,52.00
2022-10-27T20:11:44.766Z,54.90
2022-10-27T20:14:12.414Z,56.80
2022-10-27T20:16:42.349Z,57.00
2022-10-27T20:19:14.665Z,45.60
2022-10-27T20:21:41.863Z,45.10
2022-10-27T20:24:12.778Z,30.70
2022-10-27T20:26:44.434Z,28.90
2022-10-27T20:29:12.575Z,26.70
2022-10-27T20:31:40.220Z,31.20
2022-10-27T20:34:10.532Z,29.50
2022-10-27T20:36:40.407Z,53.60
2022-10-27T20:39:08.159Z,44.70
2022-10-27T20:41:35.215Z,29.00
2022-10-27T20:44:02.717Z,23.50
2022-10-27T20:46:31.835Z,26.70
2022-10-27T20:48:59.290Z,40.40
2022-10-27T20:51:28.934Z,40.10
2022-10-27T20:53:56.034Z,41.90
2022-10-27T20:56:28.104Z,42.60
2022-10-27T20:58:55.365Z,30.40
2022-10-27T21:01:29.458Z,29.90
2022-10-27T21:04:00.384Z,26.60
2022-10-27T21:08:56.239Z,19.40
2022-10-27T21:11:26.881Z,21.20
2022-10-27T21:13:57.209Z,22.60
2022-10-27T21:16:24.332Z,18.70
2022-10-27T21:18:52.867Z,17.10
2022-10-27T21:21:20.738Z,17.40
2022-10-27T21:23:48.358Z,17.70
2022-10-27T21:26:15.434Z,23.10
2022-10-27T21:28:42.902Z,24.70
2022-10-27T21:31:12.685Z,33.50
2022-10-27T21:33:40.420Z,33.70
2022-10-27T21:36:07.978Z,30.40
2022-10-27T21:38:42.482Z,32.10
2022-10-27T21:41:09.594Z,30.10
2022-10-27T21:43:38.334Z,31.50
2022-10-27T21:46:05.504Z,36.50
2022-10-27T21:48:32.692Z,38.30
2022-10-27T21:50:59.769Z,24.90
2022-10-27T21:53:26.961Z,28.20
2022-10-27T21:56:04.669Z,20.60
2022-10-27T21:58:32.490Z,22.80
2022-10-27T22:01:10.587Z,19.50
2022-10-27T22:03:38.268Z,20.60
2022-10-27T22:06:05.719Z,25.40
2022-10-27T22:08:34.686Z,18.40
2022-10-27T22:11:16.537Z,21.20
2022-10-27T22:13:45.575Z,15.60
2022-10-27T22:16:14.790Z,16.80
2022-10-27T22:18:42.225Z,15.50
2022-10-27T22:21:11.697Z,17.10
2022-10-27T22:23:41.401Z,14.30
2022-10-27T22:26:10.932Z,11.10
2022-10-27T22:28:39.231Z,12.70
2022-10-27T22:31:10.831Z,10.10
2022-10-27T22:33:41.893Z,10.40
2022-10-27T22:36:14.166Z,12.40
2022-10-27T22:38:41.318Z,12.40
2022-10-27T22:41:15.802Z,12.90
2022-10-27T22:43:43.267Z,11.10
2022-10-27T22:46:14.836Z,12.40
2022-10-27T22:48:41.764Z,17.50
2022-10-27T22:51:10.994Z,11.60
2022-10-27T22:53:39.530Z,12.10
2022-10-27T22:56:11.803Z,11.90
2022-10-27T22:58:40.095Z,11.70
2022-10-27T23:01:13.887Z,9.40
2022-10-27T23:03:41.275Z,10.90
2022-10-27T23:06:10.869Z,15.40
2022-10-27T23:08:38.030Z,12.60
2022-10-27T23:11:06.555Z,13.70
2022-10-27T23:13:35.570Z,12.60
2022-10-27T23:16:07.381Z,15.40
2022-10-27T23:18:37.342Z,10.80
2022-10-27T23:21:08.499Z,19.90
2022-10-27T23:23:35.651Z,21.60
2022-10-27T23:26:02.692Z,13.20
2022-10-27T23:28:30.102Z,15.70
2022-10-27T23:31:01.092Z,12.00
2022-10-27T23:36:00.805Z,20.40
2022-10-27T23:38:28.407Z,12.00
2022-10-27T23:40:56.897Z,11.50
2022-10-27T23:43:24.091Z,14.00
2022-10-27T23:45:57.705Z,14.20
2022-10-27T23:48:24.746Z,15.80
2022-10-27T23:50:51.802Z,11.80
2022-10-27T23:53:19.269Z,13.70
2022-10-27T23:55:53.405Z,14.10
2022-10-27T23:58:20.494Z,13.90
